FOOLHKMO

Guest
Details From FOOL - Leon M Ba
To HKMO - Mombasa Moi Intl
Flight Number -
Tags Generated
Created
Modified
Stats Distance 1,832 nm / 3,394 km
Max Altitude 0 ft / 0 m
Waypoints 5
Social Downloads 0
Likes 0
Share VATSIM

Download

Looking for another format? Having issues loading an existing format? Contact us
Advertisement - Login to hide

Notes

Generated

Route

FOOL USMAK EBNEL MOV65 HKMO

ID Type Via Altitude Latitude Longitude Leg Dist Tot Dist Heading (true) Name
O FOOL APT - 0 ft / 0 m 0.47081˚ 9.40635˚ - 0 nm - -
USMAK FIX - 0 ft / 0 m -0.55083˚ 16.66194˚ 440 nm 440 nm 98° / 98° -
EBNEL FIX - 0 ft / 0 m -2.45245˚ 28.16656˚ 700 nm 1140 nm 100° / 99° -
MOV65 FIX - 0 ft / 0 m -4.04281˚ 39.58854˚ 691 nm 1831 nm 98° / 98° -
O HKMO APT - 0 ft / 0 m -4.02983˚ 39.59137˚ 0 nm 1832 nm 12° / 12° -

Altitude Profile

Advertisement - Login to hide

Weather


0- 5 10 15 20 25 30 35+ Temperature / ° C

Clouds and Precipitation
Forecast for 2017-12-18 06:00 UTC. Updated 33 minutes ago

Ground ~20,000 ft ~40,000 ft Winds

FOOL

Details ICAO FOOL (LBV)
Name Leon M Ba
Region Gabon
Timezone Africa/Libreville (UTC+1.0)
Stats Elevation 39 ft / 12 m (AMSL)
Location 0.458616° 9.412250°
Runways 1
Magnetic Variation 1.935° W

METAR

Not found

TAF

TAF FOOL 172300Z 1800/1906 22008KT 9999 SCT011 FEW020CB BKN030 PROB30 TEMPO 1800/1805 2000 TSRA BKN006 FEW016CB OVC023 TEMPO 1815/1818 TS PROB30 TEMPO 1819/1824 3500 TSRA BKN008 FEW018CB OVC026

Decode

Departure Runways

ID Width Length Bearing (true) Bearing (mag) Surface Threshold Offset Overrun Length
16 148 ft / 45 m 9,889 ft / 3,014 m 154.19° 156.13° Asphalt 0 ft / 0 m 192 ft / 59 m
34 148 ft / 45 m 9,889 ft / 3,014 m 334.19° 336.13° Asphalt 0 ft / 0 m 209 ft / 64 m

HKMO

Details ICAO HKMO (MBA)
Name MOMBASA MOI INTL
Region Kenya
Timezone Africa/Nairobi (UTC+3.0)
Stats Elevation 200 ft / 61 m (AMSL)
Location -4.030744° 39.596732°
Runways 2
Magnetic Variation 0.939° W

METAR

HKMO 180300Z 32003KT 9999 SCT019 24/23 Q1013 NOSIG

Decode

TAF

TAF HKMO 172300Z 1800/1906 00000KT 9999 FEW020 BECMG 1809/1812 06010KT SCT025 BECMG 1819/1822 04004KT FEW022 BECMG 1900/1906 00000KT FEW019

Decode

Destination Runways

ID Width Length Bearing (true) Bearing (mag) Surface Threshold Offset Overrun Length
03 151 ft / 46 m 11,040 ft / 3,365 m 29.14° 30.08° Asphalt 2,503 ft / 763 m 197 ft / 60 m
15 118 ft / 36 m 4,492 ft / 1,369 m 150.47° 151.41° Asphalt 0 ft / 0 m 190 ft / 58 m
21 151 ft / 46 m 11,040 ft / 3,365 m 209.14° 210.08° Asphalt 0 ft / 0 m 197 ft / 60 m
33 118 ft / 36 m 4,492 ft / 1,369 m 330.47° 331.41° Asphalt 0 ft / 0 m 250 ft / 76 m

Approach Navaids

Runway Type Ident Frequency Range Bearing (true) Bearing (mag) Slope Elevation
21 Localiser IMI 110.10 MHz 18 nm / 33 km 209.16° 210.10° - 187 ft / 57 m (AMSL)
21 Glidescope IMI 110.10 MHz 10 nm / 19 km 209.14° 210.07° 3.00° 194 ft / 59 m (AMSL)
21 DME IMI 110.10 MHz 18 nm / 33 km - - - 257 ft / 78 m (AMSL)